sensor_id;sensor_type;location;lat;lon;timestamp;temperature;humidity
27633;DHT22;15046;50.930;13.334;2024-02-14T00:00:03;3.90;99.90
27633;DHT22;15046;50.930;13.334;2024-02-14T00:02:29;4.00;99.90
27633;DHT22;15046;50.930;13.334;2024-02-14T00:04:55;4.00;99.90
27633;DHT22;15046;50.930;13.334;2024-02-14T00:07:21;3.90;99.90
27633;DHT22;15046;50.930;13.334;2024-02-14T00:09:48;3.90;99.90
27633;DHT22;15046;50.930;13.334;2024-02-14T00:12:13;3.90;99.90
27633;DHT22;15046;50.930;13.334;2024-02-14T00:14:39;3.90;99.90
27633;DHT22;15046;50.930;13.334;2024-02-14T00:17:05;3.90;99.90
27633;DHT22;15046;50.930;13.334;2024-02-14T00:19:31;4.00;99.90
27633;DHT22;15046;50.930;13.334;2024-02-14T00:21:57;4.00;99.90
27633;DHT22;15046;50.930;13.334;2024-02-14T00:24:23;3.90;99.90
27633;DHT22;15046;50.930;13.334;2024-02-14T00:26:54;3.90;99.90
27633;DHT22;15046;50.930;13.334;2024-02-14T00:29:21;3.90;99.90
27633;DHT22;15046;50.930;13.334;2024-02-14T00:31:47;3.90;99.90
27633;DHT22;15046;50.930;13.334;2024-02-14T00:34:13;3.90;99.90
27633;DHT22;15046;50.930;13.334;2024-02-14T00:36:39;3.90;99.90
27633;DHT22;15046;50.930;13.334;2024-02-14T00:39:04;3.90;99.90
27633;DHT22;15046;50.930;13.334;2024-02-14T00:41:34;3.90;99.90
27633;DHT22;15046;50.930;13.334;2024-02-14T00:44:01;3.90;99.90
27633;DHT22;15046;50.930;13.334;2024-02-14T00:46:29;3.80;99.90
27633;DHT22;15046;50.930;13.334;2024-02-14T00:48:56;3.90;99.90
27633;DHT22;15046;50.930;13.334;2024-02-14T00:51:22;3.90;99.90
27633;DHT22;15046;50.930;13.334;2024-02-14T00:53:48;3.80;99.90
27633;DHT22;15046;50.930;13.334;2024-02-14T00:56:13;3.90;99.90
27633;DHT22;15046;50.930;13.334;2024-02-14T00:58:39;3.90;99.90
27633;DHT22;15046;50.930;13.334;2024-02-14T01:01:05;3.90;99.90
27633;DHT22;15046;50.930;13.334;2024-02-14T01:03:31;3.90;99.90
27633;DHT22;15046;50.930;13.334;2024-02-14T01:05:57;3.90;99.90
27633;DHT22;15046;50.930;13.334;2024-02-14T01:08:23;3.90;99.90
27633;DHT22;15046;50.930;13.334;2024-02-14T01:10:48;3.90;99.90
27633;DHT22;15046;50.930;13.334;2024-02-14T01:13:17;3.90;99.90
27633;DHT22;15046;50.930;13.334;2024-02-14T01:15:43;3.90;99.90
27633;DHT22;15046;50.930;13.334;2024-02-14T01:18:09;3.90;99.90
27633;DHT22;15046;50.930;13.334;2024-02-14T01:20:35;3.90;99.90
27633;DHT22;15046;50.930;13.334;2024-02-14T01:23:03;3.90;99.90
27633;DHT22;15046;50.930;13.334;2024-02-14T01:25:28;4.00;99.90
27633;DHT22;15046;50.930;13.334;2024-02-14T01:27:54;3.90;99.90
27633;DHT22;15046;50.930;13.334;2024-02-14T01:30:20;3.90;99.90
27633;DHT22;15046;50.930;13.334;2024-02-14T01:32:46;3.90;99.90
27633;DHT22;15046;50.930;13.334;2024-02-14T01:35:12;3.90;99.90
27633;DHT22;15046;50.930;13.334;2024-02-14T01:37:38;3.90;99.90
27633;DHT22;15046;50.930;13.334;2024-02-14T01:40:05;3.90;99.90
27633;DHT22;15046;50.930;13.334;2024-02-14T01:42:33;3.90;99.90
27633;DHT22;15046;50.930;13.334;2024-02-14T01:44:58;3.90;99.90
27633;DHT22;15046;50.930;13.334;2024-02-14T01:47:24;3.90;99.90
27633;DHT22;15046;50.930;13.334;2024-02-14T01:49:51;3.90;99.90
27633;DHT22;15046;50.930;13.334;2024-02-14T01:52:16;3.90;99.90
27633;DHT22;15046;50.930;13.334;2024-02-14T01:54:43;3.90;99.90
27633;DHT22;15046;50.930;13.334;2024-02-14T01:57:09;4.00;99.90
27633;DHT22;15046;50.930;13.334;2024-02-14T01:59:36;4.10;99.90
27633;DHT22;15046;50.930;13.334;2024-02-14T02:02:03;4.10;99.90
27633;DHT22;15046;50.930;13.334;2024-02-14T02:04:32;4.20;99.90
27633;DHT22;15046;50.930;13.334;2024-02-14T02:06:58;4.20;99.90
27633;DHT22;15046;50.930;13.334;2024-02-14T02:09:24;4.20;99.90
27633;DHT22;15046;50.930;13.334;2024-02-14T02:11:52;4.10;99.90
27633;DHT22;15046;50.930;13.334;2024-02-14T02:14:22;4.10;99.90
27633;DHT22;15046;50.930;13.334;2024-02-14T02:16:48;4.20;99.90
27633;DHT22;15046;50.930;13.334;2024-02-14T02:19:14;4.20;99.90
27633;DHT22;15046;50.930;13.334;2024-02-14T02:21:41;4.20;99.90
27633;DHT22;15046;50.930;13.334;2024-02-14T02:24:08;4.20;99.90
27633;DHT22;15046;50.930;13.334;2024-02-14T02:26:34;4.20;99.90
27633;DHT22;15046;50.930;13.334;2024-02-14T02:29:00;4.20;99.90
27633;DHT22;15046;50.930;13.334;2024-02-14T02:34:31;4.20;99.90
27633;DHT22;15046;50.930;13.334;2024-02-14T02:36:57;4.20;99.90
27633;DHT22;15046;50.930;13.334;2024-02-14T02:39:23;4.20;99.90
27633;DHT22;15046;50.930;13.334;2024-02-14T02:41:49;4.20;99.90
27633;DHT22;15046;50.930;13.334;2024-02-14T02:44:15;4.20;99.90
27633;DHT22;15046;50.930;13.334;2024-02-14T02:46:41;4.20;99.90
27633;DHT22;15046;50.930;13.334;2024-02-14T02:49:07;4.20;99.90
27633;DHT22;15046;50.930;13.334;2024-02-14T02:51:33;4.20;99.90
27633;DHT22;15046;50.930;13.334;2024-02-14T02:53:58;4.30;99.90
27633;DHT22;15046;50.930;13.334;2024-02-14T02:56:24;4.30;99.90
27633;DHT22;15046;50.930;13.334;2024-02-14T02:58:54;4.30;99.90
27633;DHT22;15046;50.930;13.334;2024-02-14T03:01:20;4.30;99.90
27633;DHT22;15046;50.930;13.334;2024-02-14T03:03:49;4.40;99.90
27633;DHT22;15046;50.930;13.334;2024-02-14T03:06:15;4.30;99.90
27633;DHT22;15046;50.930;13.334;2024-02-14T03:08:40;4.30;99.90
27633;DHT22;15046;50.930;13.334;2024-02-14T03:11:07;4.40;99.90
27633;DHT22;15046;50.930;13.334;2024-02-14T03:13:33;4.30;99.90
27633;DHT22;15046;50.930;13.334;2024-02-14T03:16:00;4.40;99.90
27633;DHT22;15046;50.930;13.334;2024-02-14T03:18:25;4.40;99.90
27633;DHT22;15046;50.930;13.334;2024-02-14T03:20:51;4.40;99.90
27633;DHT22;15046;50.930;13.334;2024-02-14T03:23:19;4.40;99.90
27633;DHT22;15046;50.930;13.334;2024-02-14T03:25:45;4.40;99.90
27633;DHT22;15046;50.930;13.334;2024-02-14T03:28:11;4.40;99.90
27633;DHT22;15046;50.930;13.334;2024-02-14T03:30:39;4.40;99.90
27633;DHT22;15046;50.930;13.334;2024-02-14T03:33:05;4.40;99.90
27633;DHT22;15046;50.930;13.334;2024-02-14T03:35:33;4.40;99.90
27633;DHT22;15046;50.930;13.334;2024-02-14T03:38:01;4.40;99.90
27633;DHT22;15046;50.930;13.334;2024-02-14T03:40:27;4.40;99.90
27633;DHT22;15046;50.930;13.334;2024-02-14T03:42:58;4.40;99.90
27633;DHT22;15046;50.930;13.334;2024-02-14T03:45:24;4.30;99.90
27633;DHT22;15046;50.930;13.334;2024-02-14T03:47:50;4.30;99.90
27633;DHT22;15046;50.930;13.334;2024-02-14T03:50:15;4.30;99.90
27633;DHT22;15046;50.930;13.334;2024-02-14T03:52:41;4.30;99.90
27633;DHT22;15046;50.930;13.334;2024-02-14T03:55:12;4.30;99.90
27633;DHT22;15046;50.930;13.334;2024-02-14T03:57:39;4.30;99.90
27633;DHT22;15046;50.930;13.334;2024-02-14T04:00:05;4.30;99.90
27633;DHT22;15046;50.930;13.334;2024-02-14T04:02:34;4.30;99.90
27633;DHT22;15046;50.930;13.334;2024-02-14T04:05:00;4.30;99.90
27633;DHT22;15046;50.930;13.334;2024-02-14T04:07:28;4.30;99.90
27633;DHT22;15046;50.930;13.334;2024-02-14T04:09:55;4.30;99.90
27633;DHT22;15046;50.930;13.334;2024-02-14T04:12:21;4.30;99.90
27633;DHT22;15046;50.930;13.334;2024-02-14T04:14:47;4.30;99.90
27633;DHT22;15046;50.930;13.334;2024-02-14T04:17:13;4.30;99.90
27633;DHT22;15046;50.930;13.334;2024-02-14T04:19:41;4.20;99.90
27633;DHT22;15046;50.930;13.334;2024-02-14T04:22:07;4.20;99.90
27633;DHT22;15046;50.930;13.334;2024-02-14T04:24:34;4.30;99.90
27633;DHT22;15046;50.930;13.334;2024-02-14T04:27:00;4.30;99.90
27633;DHT22;15046;50.930;13.334;2024-02-14T04:29:28;4.30;99.90
27633;DHT22;15046;50.930;13.334;2024-02-14T04:31:56;4.30;99.90
27633;DHT22;15046;50.930;13.334;2024-02-14T04:34:22;4.40;99.90
27633;DHT22;15046;50.930;13.334;2024-02-14T04:36:48;4.40;99.90
27633;DHT22;15046;50.930;13.334;2024-02-14T04:39:14;4.40;99.90
27633;DHT22;15046;50.930;13.334;2024-02-14T04:41:40;4.40;99.90
27633;DHT22;15046;50.930;13.334;2024-02-14T04:44:06;4.50;99.90
27633;DHT22;15046;50.930;13.334;2024-02-14T04:46:32;4.50;99.90
27633;DHT22;15046;50.930;13.334;2024-02-14T04:49:01;4.40;99.90
27633;DHT22;15046;50.930;13.334;2024-02-14T04:51:32;4.40;99.90
27633;DHT22;15046;50.930;13.334;2024-02-14T04:53:58;4.40;99.90
27633;DHT22;15046;50.930;13.334;2024-02-14T04:56:28;4.40;99.90
27633;DHT22;15046;50.930;13.334;2024-02-14T04:58:54;4.40;99.90
27633;DHT22;15046;50.930;13.334;2024-02-14T05:01:23;4.40;99.90
27633;DHT22;15046;50.930;13.334;2024-02-14T05:03:49;4.40;99.90
27633;DHT22;15046;50.930;13.334;2024-02-14T05:06:15;4.40;99.90
27633;DHT22;15046;50.930;13.334;2024-02-14T05:08:41;4.40;99.90
27633;DHT22;15046;50.930;13.334;2024-02-14T05:11:07;4.40;99.90
27633;DHT22;15046;50.930;13.334;2024-02-14T05:13:32;4.40;99.90
27633;DHT22;15046;50.930;13.334;2024-02-14T05:16:02;4.40;99.90
27633;DHT22;15046;50.930;13.334;2024-02-14T05:18:28;4.50;99.90
27633;DHT22;15046;50.930;13.334;2024-02-14T05:20:54;4.50;99.90
27633;DHT22;15046;50.930;13.334;2024-02-14T05:23:19;4.60;99.90
27633;DHT22;15046;50.930;13.334;2024-02-14T05:25:45;4.60;99.90
27633;DHT22;15046;50.930;13.334;2024-02-14T05:28:11;4.60;99.90
27633;DHT22;15046;50.930;13.334;2024-02-14T05:30:42;4.60;99.90
27633;DHT22;15046;50.930;13.334;2024-02-14T05:33:08;4.60;99.90
27633;DHT22;15046;50.930;13.334;2024-02-14T05:35:34;4.70;99.90
27633;DHT22;15046;50.930;13.334;2024-02-14T05:38:00;4.70;99.90
27633;DHT22;15046;50.930;13.334;2024-02-14T05:40:26;4.70;99.90
27633;DHT22;15046;50.930;13.334;2024-02-14T05:42:52;4.70;99.90
27633;DHT22;15046;50.930;13.334;2024-02-14T05:45:18;4.60;99.90
27633;DHT22;15046;50.930;13.334;2024-02-14T05:47:43;4.60;99.90
27633;DHT22;15046;50.930;13.334;2024-02-14T05:50:09;4.60;99.90
27633;DHT22;15046;50.930;13.334;2024-02-14T05:52:37;4.60;99.90
27633;DHT22;15046;50.930;13.334;2024-02-14T05:55:04;4.60;99.90
27633;DHT22;15046;50.930;13.334;2024-02-14T05:57:30;4.60;99.90
27633;DHT22;15046;50.930;13.334;2024-02-14T05:59:56;4.70;99.90
27633;DHT22;15046;50.930;13.334;2024-02-14T06:02:22;4.70;99.90
27633;DHT22;15046;50.930;13.334;2024-02-14T06:04:47;4.80;99.90
27633;DHT22;15046;50.930;13.334;2024-02-14T06:07:13;4.80;99.90
27633;DHT22;15046;50.930;13.334;2024-02-14T06:09:39;4.90;99.90
27633;DHT22;15046;50.930;13.334;2024-02-14T06:12:06;4.90;99.90
27633;DHT22;15046;50.930;13.334;2024-02-14T06:14:31;4.90;99.90
27633;DHT22;15046;50.930;13.334;2024-02-14T06:16:59;4.90;99.90
27633;DHT22;15046;50.930;13.334;2024-02-14T06:19:27;5.00;99.90
27633;DHT22;15046;50.930;13.334;2024-02-14T06:21:53;5.10;99.90
27633;DHT22;15046;50.930;13.334;2024-02-14T06:24:19;5.10;99.90
27633;DHT22;15046;50.930;13.334;2024-02-14T06:26:45;5.20;99.90
27633;DHT22;15046;50.930;13.334;2024-02-14T06:29:11;5.20;99.90
27633;DHT22;15046;50.930;13.334;2024-02-14T06:31:37;5.30;99.90
27633;DHT22;15046;50.930;13.334;2024-02-14T06:34:03;5.30;99.90
27633;DHT22;15046;50.930;13.334;2024-02-14T06:36:30;5.30;99.90
27633;DHT22;15046;50.930;13.334;2024-02-14T06:38:56;5.30;99.90
27633;DHT22;15046;50.930;13.334;2024-02-14T06:41:22;5.30;99.90
27633;DHT22;15046;50.930;13.334;2024-02-14T06:43:48;5.30;99.90
27633;DHT22;15046;50.930;13.334;2024-02-14T06:46:14;5.30;99.90
27633;DHT22;15046;50.930;13.334;2024-02-14T06:48:40;5.40;99.90
27633;DHT22;15046;50.930;13.334;2024-02-14T06:51:09;5.40;99.90
27633;DHT22;15046;50.930;13.334;2024-02-14T06:53:35;5.40;99.90
27633;DHT22;15046;50.930;13.334;2024-02-14T06:56:01;5.40;99.90
27633;DHT22;15046;50.930;13.334;2024-02-14T06:58:27;5.50;99.90
27633;DHT22;15046;50.930;13.334;2024-02-14T07:00:52;5.50;99.90
27633;DHT22;15046;50.930;13.334;2024-02-14T07:03:18;5.60;99.90
27633;DHT22;15046;50.930;13.334;2024-02-14T07:05:44;5.70;99.90
27633;DHT22;15046;50.930;13.334;2024-02-14T07:08:10;5.80;99.90
27633;DHT22;15046;50.930;13.334;2024-02-14T07:10:35;5.90;99.90
27633;DHT22;15046;50.930;13.334;2024-02-14T07:13:01;5.90;99.90
27633;DHT22;15046;50.930;13.334;2024-02-14T07:15:28;6.00;99.90
27633;DHT22;15046;50.930;13.334;2024-02-14T07:17:55;6.10;99.90
27633;DHT22;15046;50.930;13.334;2024-02-14T07:20:22;6.20;99.90
27633;DHT22;15046;50.930;13.334;2024-02-14T07:22:48;6.30;99.90
27633;DHT22;15046;50.930;13.334;2024-02-14T07:25:21;6.40;99.90
27633;DHT22;15046;50.930;13.334;2024-02-14T07:27:49;6.50;99.90
27633;DHT22;15046;50.930;13.334;2024-02-14T07:30:18;6.60;99.90
27633;DHT22;15046;50.930;13.334;2024-02-14T07:32:46;6.70;99.90
27633;DHT22;15046;50.930;13.334;2024-02-14T07:35:12;6.70;99.90
27633;DHT22;15046;50.930;13.334;2024-02-14T07:37:42;6.70;99.90
27633;DHT22;15046;50.930;13.334;2024-02-14T07:40:09;6.80;99.90
27633;DHT22;15046;50.930;13.334;2024-02-14T07:42:35;6.80;99.90
27633;DHT22;15046;50.930;13.334;2024-02-14T07:45:01;7.00;99.90
27633;DHT22;15046;50.930;13.334;2024-02-14T07:47:29;7.10;99.90
27633;DHT22;15046;50.930;13.334;2024-02-14T07:49:55;7.20;99.90
27633;DHT22;15046;50.930;13.334;2024-02-14T07:52:22;7.30;99.90
27633;DHT22;15046;50.930;13.334;2024-02-14T07:54:52;7.40;99.90
27633;DHT22;15046;50.930;13.334;2024-02-14T07:57:19;7.40;99.90
27633;DHT22;15046;50.930;13.334;2024-02-14T07:59:45;7.40;99.90
27633;DHT22;15046;50.930;13.334;2024-02-14T08:02:10;7.50;99.90
27633;DHT22;15046;50.930;13.334;2024-02-14T08:04:36;7.50;99.90
27633;DHT22;15046;50.930;13.334;2024-02-14T08:07:02;7.50;99.90
27633;DHT22;15046;50.930;13.334;2024-02-14T08:09:29;7.50;99.90
27633;DHT22;15046;50.930;13.334;2024-02-14T08:11:55;7.60;99.90
27633;DHT22;15046;50.930;13.334;2024-02-14T08:14:21;7.60;99.90
27633;DHT22;15046;50.930;13.334;2024-02-14T08:16:47;7.60;99.90
27633;DHT22;15046;50.930;13.334;2024-02-14T08:19:13;7.60;99.90
27633;DHT22;15046;50.930;13.334;2024-02-14T08:21:39;7.70;99.90
27633;DHT22;15046;50.930;13.334;2024-02-14T08:24:06;7.70;99.90
27633;DHT22;15046;50.930;13.334;2024-02-14T08:26:31;7.80;99.90
27633;DHT22;15046;50.930;13.334;2024-02-14T08:28:57;7.80;99.90
27633;DHT22;15046;50.930;13.334;2024-02-14T08:31:26;7.80;99.90
27633;DHT22;15046;50.930;13.334;2024-02-14T08:33:52;7.80;99.90
27633;DHT22;15046;50.930;13.334;2024-02-14T08:36:19;7.80;99.90
27633;DHT22;15046;50.930;13.334;2024-02-14T08:38:45;7.80;99.90
27633;DHT22;15046;50.930;13.334;2024-02-14T08:41:10;7.90;99.90
27633;DHT22;15046;50.930;13.334;2024-02-14T08:43:37;7.90;99.90
27633;DHT22;15046;50.930;13.334;2024-02-14T08:46:03;7.90;99.90
27633;DHT22;15046;50.930;13.334;2024-02-14T08:48:34;8.00;99.90
27633;DHT22;15046;50.930;13.334;2024-02-14T08:51:00;8.10;99.90
27633;DHT22;15046;50.930;13.334;2024-02-14T08:53:26;8.20;99.90
27633;DHT22;15046;50.930;13.334;2024-02-14T08:55:52;8.30;99.90
27633;DHT22;15046;50.930;13.334;2024-02-14T08:58:18;8.40;99.90
27633;DHT22;15046;50.930;13.334;2024-02-14T09:00:44;8.50;99.90
27633;DHT22;15046;50.930;13.334;2024-02-14T09:03:09;8.60;99.90
27633;DHT22;15046;50.930;13.334;2024-02-14T09:05:35;8.70;99.90
27633;DHT22;15046;50.930;13.334;2024-02-14T09:08:02;8.70;99.90
27633;DHT22;15046;50.930;13.334;2024-02-14T09:10:28;8.80;99.90
27633;DHT22;15046;50.930;13.334;2024-02-14T09:12:54;8.80;99.90
27633;DHT22;15046;50.930;13.334;2024-02-14T09:15:20;8.90;99.90
27633;DHT22;15046;50.930;13.334;2024-02-14T09:17:47;9.00;99.90
27633;DHT22;15046;50.930;13.334;2024-02-14T09:20:13;9.00;99.90
27633;DHT22;15046;50.930;13.334;2024-02-14T09:22:39;8.90;99.90
27633;DHT22;15046;50.930;13.334;2024-02-14T09:25:08;8.80;99.90
27633;DHT22;15046;50.930;13.334;2024-02-14T09:27:37;8.70;99.90
27633;DHT22;15046;50.930;13.334;2024-02-14T09:30:03;8.60;99.90
27633;DHT22;15046;50.930;13.334;2024-02-14T09:32:30;8.70;99.90
27633;DHT22;15046;50.930;13.334;2024-02-14T09:34:58;8.80;99.90
27633;DHT22;15046;50.930;13.334;2024-02-14T09:37:23;8.80;99.90
27633;DHT22;15046;50.930;13.334;2024-02-14T09:39:49;8.90;99.90
27633;DHT22;15046;50.930;13.334;2024-02-14T09:42:16;8.90;99.90
27633;DHT22;15046;50.930;13.334;2024-02-14T09:44:45;8.90;99.90
27633;DHT22;15046;50.930;13.334;2024-02-14T09:47:12;9.00;99.90
27633;DHT22;15046;50.930;13.334;2024-02-14T09:49:39;9.00;99.90
27633;DHT22;15046;50.930;13.334;2024-02-14T09:52:06;8.90;99.90
27633;DHT22;15046;50.930;13.334;2024-02-14T09:54:33;9.00;99.90
27633;DHT22;15046;50.930;13.334;2024-02-14T09:57:00;9.20;99.90
27633;DHT22;15046;50.930;13.334;2024-02-14T09:59:29;9.40;99.90
27633;DHT22;15046;50.930;13.334;2024-02-14T10:01:54;9.60;99.90
27633;DHT22;15046;50.930;13.334;2024-02-14T10:04:21;10.00;99.90
27633;DHT22;15046;50.930;13.334;2024-02-14T10:06:48;10.30;99.90
27633;DHT22;15046;50.930;13.334;2024-02-14T10:09:21;10.30;99.90
27633;DHT22;15046;50.930;13.334;2024-02-14T10:11:48;10.20;99.90
27633;DHT22;15046;50.930;13.334;2024-02-14T10:14:14;10.20;99.90
27633;DHT22;15046;50.930;13.334;2024-02-14T10:16:40;10.10;99.90
27633;DHT22;15046;50.930;13.334;2024-02-14T10:19:16;10.00;99.90
27633;DHT22;15046;50.930;13.334;2024-02-14T10:21:42;9.60;99.90
27633;DHT22;15046;50.930;13.334;2024-02-14T10:24:08;9.10;99.90
27633;DHT22;15046;50.930;13.334;2024-02-14T10:26:37;8.70;99.90
27633;DHT22;15046;50.930;13.334;2024-02-14T10:29:03;8.60;99.90
27633;DHT22;15046;50.930;13.334;2024-02-14T10:31:29;8.50;99.90
27633;DHT22;15046;50.930;13.334;2024-02-14T10:33:55;8.40;99.90
27633;DHT22;15046;50.930;13.334;2024-02-14T10:36:24;8.30;99.90
27633;DHT22;15046;50.930;13.334;2024-02-14T10:38:51;8.20;99.90
27633;DHT22;15046;50.930;13.334;2024-02-14T10:41:17;8.20;99.90
27633;DHT22;15046;50.930;13.334;2024-02-14T10:43:43;8.20;99.90
27633;DHT22;15046;50.930;13.334;2024-02-14T10:46:31;8.20;99.90
27633;DHT22;15046;50.930;13.334;2024-02-14T10:49:03;8.30;99.90
27633;DHT22;15046;50.930;13.334;2024-02-14T10:51:35;8.40;99.90
27633;DHT22;15046;50.930;13.334;2024-02-14T10:54:05;8.60;99.90
27633;DHT22;15046;50.930;13.334;2024-02-14T10:56:35;8.80;99.90
27633;DHT22;15046;50.930;13.334;2024-02-14T10:59:04;9.20;99.90
27633;DHT22;15046;50.930;13.334;2024-02-14T11:01:31;9.40;99.90
27633;DHT22;15046;50.930;13.334;2024-02-14T11:04:00;9.40;99.90
27633;DHT22;15046;50.930;13.334;2024-02-14T11:06:26;9.50;99.90
27633;DHT22;15046;50.930;13.334;2024-02-14T11:09:03;9.50;99.90
27633;DHT22;15046;50.930;13.334;2024-02-14T11:11:33;9.50;99.90
27633;DHT22;15046;50.930;13.334;2024-02-14T11:13:59;9.50;99.90
27633;DHT22;15046;50.930;13.334;2024-02-14T11:16:28;10.00;99.90
27633;DHT22;15046;50.930;13.334;2024-02-14T11:19:06;11.70;99.90
27633;DHT22;15046;50.930;13.334;2024-02-14T11:21:35;14.30;99.90
27633;DHT22;15046;50.930;13.334;2024-02-14T11:24:06;16.10;99.90
27633;DHT22;15046;50.930;13.334;2024-02-14T11:26:48;17.40;98.70
27633;DHT22;15046;50.930;13.334;2024-02-14T11:29:19;17.60;94.70
27633;DHT22;15046;50.930;13.334;2024-02-14T11:31:46;17.10;93.60
27633;DHT22;15046;50.930;13.334;2024-02-14T11:34:14;16.30;92.90
27633;DHT22;15046;50.930;13.334;2024-02-14T11:36:44;15.40;93.20
27633;DHT22;15046;50.930;13.334;2024-02-14T11:39:10;15.10;93.60
27633;DHT22;15046;50.930;13.334;2024-02-14T11:41:38;15.10;93.50
27633;DHT22;15046;50.930;13.334;2024-02-14T11:44:04;14.60;93.40
27633;DHT22;15046;50.930;13.334;2024-02-14T11:46:35;13.90;93.90
27633;DHT22;15046;50.930;13.334;2024-02-14T11:49:05;13.60;94.80
27633;DHT22;15046;50.930;13.334;2024-02-14T11:51:31;13.60;94.70
27633;DHT22;15046;50.930;13.334;2024-02-14T11:53:58;13.50;95.10
27633;DHT22;15046;50.930;13.334;2024-02-14T11:56:32;13.30;95.20
27633;DHT22;15046;50.930;13.334;2024-02-14T11:59:02;13.40;95.10
27633;DHT22;15046;50.930;13.334;2024-02-14T12:01:31;13.30;95.00
27633;DHT22;15046;50.930;13.334;2024-02-14T12:04:02;13.70;95.20
27633;DHT22;15046;50.930;13.334;2024-02-14T12:06:31;14.50;94.20
27633;DHT22;15046;50.930;13.334;2024-02-14T12:09:00;14.80;93.50
27633;DHT22;15046;50.930;13.334;2024-02-14T12:11:36;14.70;93.10
27633;DHT22;15046;50.930;13.334;2024-02-14T12:14:07;14.10;93.10
27633;DHT22;15046;50.930;13.334;2024-02-14T12:16:37;13.60;93.90
27633;DHT22;15046;50.930;13.334;2024-02-14T12:19:15;13.10;94.50
27633;DHT22;15046;50.930;13.334;2024-02-14T12:21:42;12.90;94.70
27633;DHT22;15046;50.930;13.334;2024-02-14T12:24:12;12.80;94.80
27633;DHT22;15046;50.930;13.334;2024-02-14T12:26:41;12.90;95.00
27633;DHT22;15046;50.930;13.334;2024-02-14T12:29:10;12.90;95.00
27633;DHT22;15046;50.930;13.334;2024-02-14T12:31:36;12.80;95.20
27633;DHT22;15046;50.930;13.334;2024-02-14T12:34:03;12.80;95.30
27633;DHT22;15046;50.930;13.334;2024-02-14T12:36:31;13.00;95.00
27633;DHT22;15046;50.930;13.334;2024-02-14T12:39:01;12.90;94.90
27633;DHT22;15046;50.930;13.334;2024-02-14T12:41:30;12.70;95.10
27633;DHT22;15046;50.930;13.334;2024-02-14T12:43:58;12.50;95.40
27633;DHT22;15046;50.930;13.334;2024-02-14T12:46:24;12.40;95.60
27633;DHT22;15046;50.930;13.334;2024-02-14T12:48:50;12.30;95.80
27633;DHT22;15046;50.930;13.334;2024-02-14T12:51:16;12.20;95.90
27633;DHT22;15046;50.930;13.334;2024-02-14T12:53:42;12.20;96.10
27633;DHT22;15046;50.930;13.334;2024-02-14T12:56:08;12.10;96.10
27633;DHT22;15046;50.930;13.334;2024-02-14T12:58:34;12.20;96.50
27633;DHT22;15046;50.930;13.334;2024-02-14T13:01:02;12.60;96.60
27633;DHT22;15046;50.930;13.334;2024-02-14T13:03:34;13.00;96.40
27633;DHT22;15046;50.930;13.334;2024-02-14T13:06:01;13.50;95.90
27633;DHT22;15046;50.930;13.334;2024-02-14T13:08:36;13.50;95.70
27633;DHT22;15046;50.930;13.334;2024-02-14T13:11:22;13.40;95.60
27633;DHT22;15046;50.930;13.334;2024-02-14T13:13:48;13.50;95.80
27633;DHT22;15046;50.930;13.334;2024-02-14T13:16:14;13.70;95.60
27633;DHT22;15046;50.930;13.334;2024-02-14T13:18:40;13.70;95.30
27633;DHT22;15046;50.930;13.334;2024-02-14T13:21:05;13.70;95.20
27633;DHT22;15046;50.930;13.334;2024-02-14T13:23:31;13.60;95.10
27633;DHT22;15046;50.930;13.334;2024-02-14T13:25:57;13.60;95.10
27633;DHT22;15046;50.930;13.334;2024-02-14T13:28:24;13.40;95.00
27633;DHT22;15046;50.930;13.334;2024-02-14T13:30:50;13.50;95.20
27633;DHT22;15046;50.930;13.334;2024-02-14T13:33:16;13.40;94.90
27633;DHT22;15046;50.930;13.334;2024-02-14T13:35:42;13.20;95.00
27633;DHT22;15046;50.930;13.334;2024-02-14T13:38:08;12.90;95.20
27633;DHT22;15046;50.930;13.334;2024-02-14T13:40:37;12.50;95.40
27633;DHT22;15046;50.930;13.334;2024-02-14T13:43:03;12.20;95.70
27633;DHT22;15046;50.930;13.334;2024-02-14T13:45:40;12.00;95.90
27633;DHT22;15046;50.930;13.334;2024-02-14T13:48:08;11.90;96.20
27633;DHT22;15046;50.930;13.334;2024-02-14T13:50:34;11.70;96.40
27633;DHT22;15046;50.930;13.334;2024-02-14T13:53:00;11.60;96.60
27633;DHT22;15046;50.930;13.334;2024-02-14T13:55:26;11.50;96.80
27633;DHT22;15046;50.930;13.334;2024-02-14T13:57:51;11.60;97.10
27633;DHT22;15046;50.930;13.334;2024-02-14T14:00:17;11.70;97.50
27633;DHT22;15046;50.930;13.334;2024-02-14T14:02:43;11.70;97.10
27633;DHT22;15046;50.930;13.334;2024-02-14T14:05:12;11.60;97.10
27633;DHT22;15046;50.930;13.334;2024-02-14T14:07:39;11.50;97.20
27633;DHT22;15046;50.930;13.334;2024-02-14T14:10:06;11.50;97.30
27633;DHT22;15046;50.930;13.334;2024-02-14T14:12:32;11.40;97.50
27633;DHT22;15046;50.930;13.334;2024-02-14T14:14:59;11.40;97.60
27633;DHT22;15046;50.930;13.334;2024-02-14T14:17:24;11.40;97.70
27633;DHT22;15046;50.930;13.334;2024-02-14T14:19:51;11.30;97.70
27633;DHT22;15046;50.930;13.334;2024-02-14T14:22:17;11.30;97.90
27633;DHT22;15046;50.930;13.334;2024-02-14T14:24:43;11.20;98.00
27633;DHT22;15046;50.930;13.334;2024-02-14T14:27:09;11.10;98.00
27633;DHT22;15046;50.930;13.334;2024-02-14T14:29:40;11.00;98.20
27633;DHT22;15046;50.930;13.334;2024-02-14T14:32:09;10.90;98.40
27633;DHT22;15046;50.930;13.334;2024-02-14T14:34:35;10.90;98.70
27633;DHT22;15046;50.930;13.334;2024-02-14T14:37:02;10.80;98.80
27633;DHT22;15046;50.930;13.334;2024-02-14T14:39:28;10.70;98.90
27633;DHT22;15046;50.930;13.334;2024-02-14T14:41:54;10.60;99.10
27633;DHT22;15046;50.930;13.334;2024-02-14T14:44:24;10.60;99.30
27633;DHT22;15046;50.930;13.334;2024-02-14T14:46:50;10.60;99.40
27633;DHT22;15046;50.930;13.334;2024-02-14T14:49:16;10.60;99.60
27633;DHT22;15046;50.930;13.334;2024-02-14T14:51:42;10.60;99.70
27633;DHT22;15046;50.930;13.334;2024-02-14T14:54:09;10.50;99.70
27633;DHT22;15046;50.930;13.334;2024-02-14T14:56:35;10.40;99.90
27633;DHT22;15046;50.930;13.334;2024-02-14T14:59:00;10.40;99.90
27633;DHT22;15046;50.930;13.334;2024-02-14T15:01:32;10.30;99.90
27633;DHT22;15046;50.930;13.334;2024-02-14T15:03:59;10.30;99.90
27633;DHT22;15046;50.930;13.334;2024-02-14T15:06:26;10.20;99.90
27633;DHT22;15046;50.930;13.334;2024-02-14T15:08:51;10.20;99.90
27633;DHT22;15046;50.930;13.334;2024-02-14T15:11:17;10.20;99.90
27633;DHT22;15046;50.930;13.334;2024-02-14T15:13:48;10.20;99.90
27633;DHT22;15046;50.930;13.334;2024-02-14T15:16:14;10.20;99.90
27633;DHT22;15046;50.930;13.334;2024-02-14T15:18:40;10.30;99.90
27633;DHT22;15046;50.930;13.334;2024-02-14T15:21:10;10.30;99.90
27633;DHT22;15046;50.930;13.334;2024-02-14T15:23:36;10.40;99.90
27633;DHT22;15046;50.930;13.334;2024-02-14T15:26:03;10.30;99.90
27633;DHT22;15046;50.930;13.334;2024-02-14T15:28:30;10.30;99.90